USNN 191100Z 07006MPS CAVOK 25/13 Q0999 R03/12//65 NOSIG RMK QFE745
QNH:(hPa/inHg/mmHg)999 / 29.5 / 749
QFE:(hPa/inHg/mmHg)992 / 29.31 / 744
Temperature25
Dew Point13
Visibility> 10000
WeatherCAVOK
Cloud Cover
Transition Height800 m./2900 ft.
Transition LevelFL50
SQUAWK